Time;durP1;ratioP1;P1;durP2;ratioP2;P2;SDS_P1;SDS_P2;PMS_P1;PMS_P2;Temp;Humidity;BMP_temperature;BMP_pressure;BME280_temperature;BME280_humidity;BME280_pressure;Samples;Min_cycle;Max_cycle;Signal;HPM_P1;HPM_P2
2021/06/05 00:02:23;;;;;;;;;11.75;10.75;;;;;20.08;54.51;101814.81;5111509;27;45335;-58
2021/06/05 00:04:49;;;;;;;;;10.50;10.00;;;;;20.06;54.13;101819.34;5093201;27;45499;-57
2021/06/05 00:07:15;;;;;;;;;7.25;7.25;;;;;20.04;54.70;101815.84;5121753;27;45388;-57
2021/06/05 00:09:41;;;;;;;;;8.25;8.25;;;;;20.02;54.56;101819.50;5105136;27;45397;-57
2021/06/05 00:12:08;;;;;;;;;8.75;8.00;;;;;19.98;54.57;101814.28;5083980;27;45502;-58
2021/06/05 00:14:34;;;;;;;;;9.50;9.50;;;;;19.97;54.46;101811.66;5102473;27;45464;-58
2021/06/05 00:16:59;;;;;;;;;12.50;8.00;;;;;19.93;54.31;101808.25;5102529;27;45541;-58
2021/06/05 00:19:25;;;;;;;;;11.50;8.00;;;;;19.96;54.47;101816.16;5102352;27;45181;-57
2021/06/05 00:21:50;;;;;;;;;8.00;6.50;;;;;19.96;54.14;101809.94;5120638;27;45193;-58
2021/06/05 00:24:17;;;;;;;;;8.25;8.25;;;;;19.96;54.23;101804.59;5105994;27;45284;-57
2021/06/05 00:26:43;;;;;;;;;12.00;9.25;;;;;19.96;53.99;101801.91;5102539;27;45567;-58
2021/06/05 00:29:09;;;;;;;;;10.00;9.75;;;;;19.94;54.47;101803.78;5133221;27;45585;-57
2021/06/05 00:31:34;;;;;;;;;9.50;8.75;;;;;19.93;54.50;101808.25;5112628;27;45385;-57
2021/06/05 00:34:00;;;;;;;;;8.75;8.75;;;;;19.92;54.49;101803.84;5102050;27;45362;-58
2021/06/05 00:36:26;;;;;;;;;11.00;9.75;;;;;19.93;54.02;101805.56;5094213;27;45474;-58
2021/06/05 00:38:54;;;;;;;;;8.75;8.00;;;;;19.92;54.59;101802.97;5103859;27;45509;-58
2021/06/05 00:41:20;;;;;;;;;10.50;10.25;;;;;19.91;54.28;101806.56;5102196;27;45259;-58
2021/06/05 00:43:49;;;;;;;;;12.00;9.25;;;;;19.90;54.20;101805.69;5101699;27;45480;-57
2021/06/05 00:46:18;;;;;;;;;6.25;6.25;;;;;19.86;54.64;101806.75;5102255;27;45409;-58
2021/06/05 00:48:43;;;;;;;;;7.50;7.50;;;;;19.84;54.56;101803.25;5101767;27;45171;-58
2021/06/05 00:51:10;;;;;;;;;5.00;5.00;;;;;19.81;54.80;101796.19;5100542;27;47465;-58
2021/06/05 00:53:36;;;;;;;;;4.00;4.00;;;;;19.78;54.80;101803.44;5101703;27;45223;-57
2021/06/05 00:56:06;;;;;;;;;7.25;7.00;;;;;19.81;54.64;101804.19;5102077;27;45279;-58
2021/06/05 00:58:33;;;;;;;;;9.00;9.00;;;;;19.79;54.17;101795.38;5101733;27;45253;-58
2021/06/05 01:01:06;;;;;;;;;11.00;10.25;;;;;19.74;54.72;101794.69;5101627;27;45498;-57
2021/06/05 01:03:33;;;;;;;;;8.00;6.75;;;;;19.77;54.40;101807.03;5115240;27;45294;-58
2021/06/05 01:06:26;;;;;;;;;8.00;6.75;;;;;19.76;54.50;101808.84;5101813;27;45476;-58
2021/06/05 01:09:09;;;;;;;;;13.75;11.00;;;;;19.76;54.77;101805.28;5097764;27;45234;-57
2021/06/05 01:12:00;;;;;;;;;10.25;9.00;;;;;19.76;54.47;101799.94;5116433;27;46937;-57
2021/06/05 01:14:45;;;;;;;;;10.25;10.25;;;;;19.72;54.39;101801.00;5101431;27;45185;-57
2021/06/05 01:17:23;;;;;;;;;11.50;10.50;;;;;19.64;54.75;101790.59;5124677;27;45269;-57
2021/06/05 01:19:51;;;;;;;;;13.75;12.75;;;;;19.65;54.75;101795.88;5116855;27;45484;-57
2021/06/05 01:23:03;;;;;;;;;17.25;14.50;;;;;19.61;54.96;101799.59;5121585;27;46257;-57
2021/06/05 01:26:06;;;;;;;;;15.25;14.50;;;;;19.52;55.25;101796.38;5085560;27;46597;-57
2021/06/05 01:29:06;;;;;;;;;13.00;10.75;;;;;19.44;54.89;101791.31;5082821;27;45469;-57
2021/06/05 01:31:45;;;;;;;;;12.25;11.00;;;;;19.45;54.76;101798.38;5110714;27;45279;-58
2021/06/05 01:34:12;;;;;;;;;13.75;10.50;;;;;19.43;55.00;101800.22;5107639;27;46088;-58
2021/06/05 01:36:43;;;;;;;;;11.75;11.50;;;;;19.42;54.86;101801.13;5121554;27;45314;-57
2021/06/05 01:39:13;;;;;;;;;10.25;9.75;;;;;19.41;55.03;101802.94;5096624;27;45366;-57
2021/06/05 01:41:41;;;;;;;;;12.75;12.75;;;;;19.41;55.12;101799.44;5100802;27;45463;-58
2021/06/05 01:44:08;;;;;;;;;15.00;13.00;;;;;19.40;54.85;101790.53;5100846;27;47147;-57
2021/06/05 01:46:43;;;;;;;;;15.50;12.25;;;;;19.38;54.90;101787.03;5100822;27;45271;-57
2021/06/05 01:49:09;;;;;;;;;18.00;14.75;;;;;19.35;54.83;101788.97;5082665;27;45296;-57
2021/06/05 01:51:40;;;;;;;;;13.00;13.00;;;;;19.31;55.04;101777.53;5100538;27;45498;-58
2021/06/05 01:54:15;;;;;;;;;13.00;12.25;;;;;19.29;54.98;101782.91;5100639;27;47236;-57
2021/06/05 01:56:46;;;;;;;;;17.25;12.00;;;;;19.27;54.93;101773.22;5082185;27;45364;-58
2021/06/05 01:59:14;;;;;;;;;10.75;10.50;;;;;19.27;55.36;101760.78;5100749;27;45296;-57
2021/06/05 02:01:41;;;;;;;;;17.00;14.25;;;;;19.25;54.90;101762.63;5103580;27;45432;-57
2021/06/05 02:04:08;;;;;;;;;14.00;13.00;;;;;19.26;54.96;101764.38;5092423;27;47383;-57
2021/06/05 02:06:34;;;;;;;;;15.50;13.25;;;;;19.24;55.08;101768.88;5100364;27;45343;-57
2021/06/05 02:09:02;;;;;;;;;14.75;13.75;;;;;19.23;55.36;101771.59;5100643;27;45224;-58
2021/06/05 02:11:29;;;;;;;;;17.00;16.00;;;;;19.22;55.43;101776.06;5102698;27;45374;-57
2021/06/05 02:14:01;;;;;;;;;15.25;14.25;;;;;19.17;55.58;101768.22;5100284;27;45335;-57
2021/06/05 02:16:41;;;;;;;;;17.25;17.00;;;;;19.14;55.44;101764.78;5100182;27;45450;-57
2021/06/05 02:19:15;;;;;;;;;15.25;14.50;;;;;19.09;55.62;101764.06;5082248;27;45340;-57
2021/06/05 02:21:44;;;;;;;;;16.00;14.25;;;;;19.03;55.47;101765.16;5098133;27;46433;-56
2021/06/05 02:24:24;;;;;;;;;16.75;12.00;;;;;18.98;55.50;101770.63;5104553;27;45950;-53
2021/06/05 02:26:50;;;;;;;;;14.00;13.00;;;;;18.93;55.61;101777.91;5100354;27;45401;-55
2021/06/05 02:29:20;;;;;;;;;12.75;12.00;;;;;18.87;56.04;101775.41;5100245;27;45322;-57
2021/06/05 02:31:47;;;;;;;;;13.00;13.00;;;;;18.88;55.83;101765.63;5100283;27;45525;-56
2021/06/05 02:34:17;;;;;;;;;11.50;9.75;;;;;18.87;55.67;101767.44;5100008;27;46566;-55
2021/06/05 02:36:46;;;;;;;;;14.00;13.00;;;;;18.84;55.71;101768.41;5113019;27;45279;-54
2021/06/05 02:39:14;;;;;;;;;14.75;12.00;;;;;18.82;55.72;101775.56;5113991;27;45246;-55
2021/06/05 02:41:44;;;;;;;;;12.00;11.50;;;;;18.80;55.73;101772.09;5099891;27;45431;-55
2021/06/05 02:44:10;;;;;;;;;10.50;10.50;;;;;18.77;55.95;101764.19;5100094;27;47232;-54
2021/06/05 02:46:38;;;;;;;;;12.25;10.50;;;;;18.76;56.27;101769.56;5100030;27;45246;-54
2021/06/05 02:49:19;;;;;;;;;14.00;12.75;;;;;18.73;55.85;101765.22;5100546;27;45339;-54
2021/06/05 02:52:28;;;;;;;;;15.50;14.25;;;;;18.73;55.86;101767.00;5099910;27;45287;-54
2021/06/05 02:54:58;;;;;;;;;17.50;16.25;;;;;18.67;56.10;101765.41;5099679;27;46185;-56
2021/06/05 02:57:24;;;;;;;;;21.50;19.00;;;;;18.67;55.85;101765.41;5081518;27;45253;-57
2021/06/05 02:59:49;;;;;;;;;20.00;17.00;;;;;18.68;55.96;101773.34;5081535;27;45919;-57
2021/06/05 03:02:15;;;;;;;;;21.00;18.50;;;;;18.68;56.10;101777.81;5108240;27;45236;-56
2021/06/05 03:04:40;;;;;;;;;16.25;15.75;;;;;18.65;55.95;101780.56;5105150;27;46203;-54
2021/06/05 03:07:06;;;;;;;;;18.25;16.25;;;;;18.63;55.88;101780.59;5100206;27;45231;-55
2021/06/05 03:09:31;;;;;;;;;15.50;13.75;;;;;18.59;56.18;101786.06;5101890;27;45393;-56
2021/06/05 03:11:56;;;;;;;;;16.75;15.75;;;;;18.58;56.15;101776.31;5099823;27;45415;-56
2021/06/05 03:14:22;;;;;;;;;14.75;13.50;;;;;18.56;56.13;101776.38;5099633;27;46073;-57
2021/06/05 03:16:48;;;;;;;;;16.50;15.25;;;;;18.51;55.89;101760.59;5081263;27;45361;-56
2021/06/05 03:19:13;;;;;;;;;14.50;13.75;;;;;18.51;55.99;101765.00;5099813;27;45270;-57
2021/06/05 03:21:39;;;;;;;;;16.75;16.75;;;;;18.54;56.07;101772.03;5116509;27;45286;-57
2021/06/05 03:24:05;;;;;;;;;16.75;15.25;;;;;18.56;55.98;101772.88;5086589;27;45411;-57
2021/06/05 03:26:30;;;;;;;;;17.25;14.50;;;;;18.58;56.10;101779.88;5099847;27;45264;-57
2021/06/05 03:28:56;;;;;;;;;22.00;20.25;;;;;18.57;56.02;101777.28;5099702;27;45308;-57
2021/06/05 03:31:21;;;;;;;;;15.75;15.50;;;;;18.57;56.13;101774.63;5081312;27;45319;-57
2021/06/05 03:33:48;;;;;;;;;16.75;16.00;;;;;18.55;56.28;101779.97;5102471;27;46407;-57
2021/06/05 03:36:14;;;;;;;;;15.75;15.75;;;;;18.54;56.20;101788.88;5111731;27;45216;-57
2021/06/05 03:38:41;;;;;;;;;17.25;15.50;;;;;18.49;56.40;101781.03;5107853;27;45241;-57
2021/06/05 03:41:08;;;;;;;;;18.25;16.25;;;;;18.45;56.21;101781.16;5103109;27;45157;-57
2021/06/05 03:43:33;;;;;;;;;18.50;18.00;;;;;18.41;56.40;101788.38;5106866;27;45338;-57
2021/06/05 03:45:59;;;;;;;;;24.00;22.50;;;;;18.36;56.48;101787.63;5135389;27;45346;-57
2021/06/05 03:48:24;;;;;;;;;19.00;19.00;;;;;18.30;56.65;101783.41;5107933;27;45346;-56
2021/06/05 03:50:53;;;;;;;;;18.25;17.50;;;;;18.26;56.42;101773.75;5103064;27;45437;-53
2021/06/05 03:53:21;;;;;;;;;23.75;22.00;;;;;18.24;56.29;101780.91;5102453;27;46126;-54
2021/06/05 03:55:47;;;;;;;;;16.50;15.50;;;;;18.23;56.24;101786.28;5084430;27;45347;-52
2021/06/05 03:58:13;;;;;;;;;24.25;22.25;;;;;18.21;56.29;101783.66;5102787;27;45339;-54
2021/06/05 04:00:44;;;;;;;;;24.50;20.50;;;;;18.18;56.46;101779.28;5102659;27;45322;-52
2021/06/05 04:03:11;;;;;;;;;25.50;22.50;;;;;18.14;56.49;101785.63;5115963;27;46397;-51
2021/06/05 04:05:37;;;;;;;;;20.00;19.25;;;;;18.11;56.63;101777.75;5121321;27;45321;-53
2021/06/05 04:08:04;;;;;;;;;25.25;23.00;;;;;18.09;56.48;101778.72;5124871;27;45395;-54
2021/06/05 04:10:30;;;;;;;;;18.00;18.00;;;;;18.05;56.71;101777.94;5104633;27;45451;-52
2021/06/05 04:12:59;;;;;;;;;20.25;18.00;;;;;18.02;56.42;101778.00;5102196;27;45423;-52
2021/06/05 04:15:27;;;;;;;;;27.50;24.25;;;;;18.02;56.63;101775.34;5102671;27;45438;-52
2021/06/05 04:17:59;;;;;;;;;18.50;15.50;;;;;18.05;56.36;101783.25;5102367;27;45281;-53
2021/06/05 04:20:24;;;;;;;;;21.75;17.50;;;;;18.07;56.88;101785.84;5108495;27;45228;-53
2021/06/05 04:22:50;;;;;;;;;15.75;15.00;;;;;18.04;56.64;101786.81;5118034;27;46148;-53
2021/06/05 04:25:15;;;;;;;;;22.25;20.75;;;;;18.06;56.55;101795.59;5110915;27;45271;-52
2021/06/05 04:27:40;;;;;;;;;15.50;12.00;;;;;18.04;56.64;101792.13;5102335;27;45363;-53
2021/06/05 04:30:10;;;;;;;;;24.50;19.25;;;;;18.01;56.73;101792.22;5102245;27;45422;-53
2021/06/05 04:32:35;;;;;;;;;15.25;13.75;;;;;17.99;56.66;101791.41;5102068;27;45302;-53
2021/06/05 04:35:01;;;;;;;;;16.50;16.50;;;;;17.96;56.76;101791.47;5083977;27;45867;-54
2021/06/05 04:37:26;;;;;;;;;18.25;15.25;;;;;17.96;57.06;101799.44;5116212;27;45393;-54
2021/06/05 04:39:52;;;;;;;;;20.50;16.00;;;;;17.92;56.75;101801.28;5102008;27;45294;-53
2021/06/05 04:42:17;;;;;;;;;19.00;16.00;;;;;17.87;56.90;101805.88;5101696;27;45343;-54
2021/06/05 04:44:42;;;;;;;;;18.25;16.50;;;;;17.91;57.05;101811.97;5101582;27;45270;-53
2021/06/05 04:47:08;;;;;;;;;18.00;17.00;;;;;17.87;57.07;101813.84;5083766;27;45202;-54
2021/06/05 04:49:33;;;;;;;;;21.00;19.50;;;;;17.83;57.02;101813.06;5101969;27;45172;-53
2021/06/05 04:51:59;;;;;;;;;22.25;18.75;;;;;17.85;56.68;101818.34;5101638;27;45996;-53
2021/06/05 04:54:24;;;;;;;;;16.50;15.00;;;;;17.82;56.92;101813.09;5101914;27;45153;-53
2021/06/05 04:56:50;;;;;;;;;20.75;18.25;;;;;17.81;56.91;101808.69;5101572;27;45275;-52
2021/06/05 04:59:18;;;;;;;;;18.00;14.75;;;;;17.79;56.94;101819.38;5101820;27;45541;-52
2021/06/05 05:01:44;;;;;;;;;14.75;14.75;;;;;17.76;56.96;101818.59;5104997;27;45350;-53
2021/06/05 05:04:09;;;;;;;;;17.50;14.75;;;;;17.73;57.14;101819.53;5111451;27;45362;-54
2021/06/05 05:06:36;;;;;;;;;20.75;19.25;;;;;17.73;56.82;101827.50;5101793;27;45329;-52
2021/06/05 05:09:04;;;;;;;;;11.75;11.25;;;;;17.73;57.20;101830.19;5104818;27;45329;-53
2021/06/05 05:11:29;;;;;;;;;20.00;17.75;;;;;17.70;57.09;101831.13;5117489;27;46515;-54
2021/06/05 05:13:55;;;;;;;;;21.50;20.25;;;;;17.70;57.17;101839.09;5101406;27;45161;-55
2021/06/05 05:16:21;;;;;;;;;14.50;13.25;;;;;17.70;56.93;101833.78;5101435;27;45231;-57
2021/06/05 05:18:48;;;;;;;;;13.50;12.00;;;;;17.69;57.00;101844.47;5101608;27;45420;-56
2021/06/05 05:21:18;;;;;;;;;17.75;14.25;;;;;17.73;57.06;101848.78;5114074;27;45954;-57
2021/06/05 05:23:44;;;;;;;;;15.50;13.75;;;;;17.74;56.86;101849.69;5109541;27;45303;-57
2021/06/05 05:26:11;;;;;;;;;18.50;15.00;;;;;17.74;56.94;101870.94;5101357;27;45271;-57
2021/06/05 05:28:38;;;;;;;;;15.25;15.25;;;;;17.73;56.88;101875.38;5108025;27;45416;-57
2021/06/05 05:31:08;;;;;;;;;15.25;14.25;;;;;17.71;57.17;101874.56;5116685;27;45318;-57
2021/06/05 05:33:38;;;;;;;;;19.75;17.00;;;;;17.66;56.90;101876.44;5101291;27;45208;-57
2021/06/05 05:36:08;;;;;;;;;20.25;16.00;;;;;17.63;57.01;101879.19;5108626;27;45393;-57
2021/06/05 05:38:33;;;;;;;;;18.00;13.50;;;;;17.64;56.90;101886.25;5120382;27;45336;-56
2021/06/05 05:40:59;;;;;;;;;16.00;14.75;;;;;17.61;57.06;101887.19;5101058;27;46097;-56
2021/06/05 05:43:24;;;;;;;;;17.25;14.75;;;;;17.60;57.00;101892.56;5103553;27;45212;-55
2021/06/05 05:45:50;;;;;;;;;18.00;15.75;;;;;17.60;56.81;101888.09;5134778;27;45389;-56
2021/06/05 05:48:16;;;;;;;;;16.50;14.75;;;;;17.56;56.91;101891.75;5106889;27;45377;-56
2021/06/05 05:50:44;;;;;;;;;13.00;11.50;;;;;17.58;56.91;101897.88;5101290;27;46164;-57
2021/06/05 05:53:09;;;;;;;;;16.00;14.00;;;;;17.62;56.91;101898.69;5100947;27;45489;-57
2021/06/05 05:55:35;;;;;;;;;15.50;12.25;;;;;17.63;56.51;101896.00;5100355;27;45473;-57
2021/06/05 05:58:13;;;;;;;;;12.00;11.00;;;;;17.63;56.48;101897.78;5101004;27;45329;-56
2021/06/05 06:00:42;;;;;;;;;18.50;17.00;;;;;17.64;56.69;101899.53;5100966;27;46210;-57
2021/06/05 06:03:08;;;;;;;;;16.25;14.75;;;;;17.63;56.83;101898.66;5114928;27;45564;-57
2021/06/05 06:05:34;;;;;;;;;12.00;12.00;;;;;17.64;56.98;101907.50;5101221;27;45342;-58
2021/06/05 06:08:01;;;;;;;;;5.50;5.50;;;;;17.61;57.01;101902.25;5100749;27;45249;-57
2021/06/05 06:10:27;;;;;;;;;14.75;13.75;;;;;17.62;57.00;101909.31;5103377;27;46254;-57
2021/06/05 06:12:53;;;;;;;;;12.75;11.50;;;;;17.62;56.75;101901.34;5100699;27;45243;-57
2021/06/05 06:15:22;;;;;;;;;14.50;13.25;;;;;17.63;56.66;101900.44;5101169;27;45278;-57
2021/06/05 06:17:49;;;;;;;;;14.00;11.00;;;;;17.69;56.81;101905.59;5082488;27;45568;-56
2021/06/05 06:20:26;;;;;;;;;13.25;11.75;;;;;17.73;56.69;101920.56;5088577;27;45608;-56
2021/06/05 06:22:52;;;;;;;;;13.75;11.25;;;;;17.73;56.62;101909.91;5117086;27;45390;-57
2021/06/05 06:25:22;;;;;;;;;14.25;13.00;;;;;17.76;56.78;101912.53;5100714;27;45258;-58
2021/06/05 06:27:48;;;;;;;;;10.00;10.00;;;;;17.78;56.92;101917.78;5100393;27;45351;-57
2021/06/05 06:30:18;;;;;;;;;14.00;13.50;;;;;17.78;56.94;101917.78;5100594;27;46175;-57
2021/06/05 06:32:47;;;;;;;;;10.75;8.75;;;;;17.80;56.84;101915.97;5100437;27;45453;-54
2021/06/05 06:35:13;;;;;;;;;13.00;11.25;;;;;17.78;56.83;101918.66;5100882;27;45336;-55
2021/06/05 06:37:39;;;;;;;;;13.75;13.75;;;;;17.79;56.57;101922.19;5114314;27;45468;-58
2021/06/05 06:40:05;;;;;;;;;16.25;14.50;;;;;17.80;56.75;101930.13;5100258;27;45985;-55
2021/06/05 06:42:30;;;;;;;;;12.75;11.75;;;;;17.78;56.90;101936.41;5100361;27;45650;-55
2021/06/05 06:44:56;;;;;;;;;12.50;10.50;;;;;17.80;56.76;101938.09;5100930;27;45365;-54
2021/06/05 06:47:21;;;;;;;;;12.50;12.50;;;;;17.81;56.71;101945.16;5082293;27;45743;-54
2021/06/05 06:49:46;;;;;;;;;12.00;9.25;;;;;17.79;56.77;101944.31;5100569;27;46060;-54
2021/06/05 06:52:12;;;;;;;;;10.25;7.75;;;;;17.86;56.74;101934.41;5100503;27;45251;-56
2021/06/05 06:54:37;;;;;;;;;11.00;9.25;;;;;17.87;56.88;101952.09;5127073;27;45329;-55
2021/06/05 06:57:03;;;;;;;;;14.00;13.00;;;;;17.86;56.86;101943.25;5082686;27;45326;-59
2021/06/05 06:59:31;;;;;;;;;12.50;12.00;;;;;17.77;56.37;101929.31;5100352;27;45255;-59
2021/06/05 07:01:56;;;;;;;;;13.00;12.50;;;;;17.85;56.94;101938.84;5107019;27;45236;-59
2021/06/05 07:04:21;;;;;;;;;11.00;10.75;;;;;17.86;56.76;101951.25;5108548;27;45338;-58
2021/06/05 07:06:46;;;;;;;;;11.25;11.25;;;;;17.83;57.08;101945.13;5100506;27;45219;-59
2021/06/05 07:09:13;;;;;;;;;10.50;10.50;;;;;17.85;56.67;101952.16;5104634;27;45426;-58
2021/06/05 07:11:39;;;;;;;;;14.50;11.75;;;;;17.88;56.89;101956.50;5104748;27;45346;-59
2021/06/05 07:14:06;;;;;;;;;13.50;10.75;;;;;17.90;56.78;101944.06;5103989;27;45384;-58
2021/06/05 07:16:34;;;;;;;;;15.75;14.50;;;;;17.94;57.05;101959.06;5103531;27;45328;-58
2021/06/05 07:19:00;;;;;;;;;15.00;13.50;;;;;17.96;56.96;101948.38;5103668;27;46307;-58
2021/06/05 07:21:25;;;;;;;;;14.75;11.50;;;;;17.99;56.73;101945.66;5108666;27;45405;-58
2021/06/05 07:23:51;;;;;;;;;15.25;11.00;;;;;18.02;57.33;101950.88;5111240;27;45362;-49
2021/06/05 07:26:21;;;;;;;;;14.75;13.75;;;;;18.04;57.34;101959.69;5103581;27;45515;-51
2021/06/05 07:28:53;;;;;;;;;13.50;10.75;;;;;18.08;57.16;101956.03;5103359;27;45490;-50
2021/06/05 07:31:26;;;;;;;;;14.00;12.00;;;;;18.09;56.57;101957.78;5101609;27;45637;-48
2021/06/05 07:33:52;;;;;;;;;8.75;7.25;;;;;18.16;56.72;101969.13;5120277;27;45575;-50
2021/06/05 07:36:23;;;;;;;;;12.50;12.25;;;;;18.12;57.01;101963.00;5113590;27;45500;-53
2021/06/05 07:38:48;;;;;;;;;14.00;13.00;;;;;18.14;56.89;101960.34;5099987;27;45500;-50
2021/06/05 07:41:14;;;;;;;;;11.00;8.25;;;;;18.15;56.99;101962.03;5112965;27;45157;-51
2021/06/05 07:43:40;;;;;;;;;8.75;8.75;;;;;18.19;56.97;101958.41;5084612;27;45263;-47
2021/06/05 07:46:06;;;;;;;;;12.00;8.75;;;;;18.25;57.03;101958.25;5103016;27;45456;-46
2021/06/05 07:48:32;;;;;;;;;12.75;9.25;;;;;18.29;57.08;101965.22;5084409;27;47854;-48
2021/06/05 07:50:59;;;;;;;;;12.00;10.75;;;;;18.35;57.06;101965.06;5103091;27;45347;-48
2021/06/05 07:53:25;;;;;;;;;9.25;8.50;;;;;18.34;57.03;101947.34;5102443;27;45481;-51
2021/06/05 07:55:52;;;;;;;;;9.25;8.75;;;;;18.42;56.95;101965.75;5102737;27;45381;-51
2021/06/05 07:58:18;;;;;;;;;6.50;6.50;;;;;18.46;56.94;101962.09;5102521;27;45444;-51
2021/06/05 08:00:44;;;;;;;;;8.00;8.00;;;;;18.50;57.15;101960.22;5102831;27;45417;-52
2021/06/05 08:03:10;;;;;;;;;10.50;8.50;;;;;18.56;56.84;101953.84;5120756;27;45658;-49
2021/06/05 08:05:37;;;;;;;;;8.75;7.25;;;;;18.65;56.75;101966.91;5116519;27;45298;-48
2021/06/05 08:08:04;;;;;;;;;8.25;7.00;;;;;18.71;56.90;101966.72;5106515;27;47108;-51
2021/06/05 08:10:29;;;;;;;;;8.75;8.00;;;;;18.73;56.87;101970.22;5105206;27;45416;-47
2021/06/05 08:12:56;;;;;;;;;9.75;7.75;;;;;18.77;56.88;101968.34;5106720;27;45306;-48
2021/06/05 08:15:31;;;;;;;;;9.00;8.25;;;;;18.80;56.85;101965.56;5134557;27;45265;-49
2021/06/05 08:17:57;;;;;;;;;6.00;6.00;;;;;18.83;56.46;101970.84;5113261;27;45424;-47
2021/06/05 08:20:32;;;;;;;;;8.75;6.25;;;;;18.87;56.93;101971.59;5131554;27;45252;-49
2021/06/05 08:22:58;;;;;;;;;8.00;7.00;;;;;18.86;56.61;101969.88;5098906;27;45274;-49
2021/06/05 08:25:25;;;;;;;;;9.25;7.50;;;;;18.89;56.50;101969.75;5102656;27;45236;-51
2021/06/05 08:27:51;;;;;;;;;10.25;9.50;;;;;18.90;56.76;101960.84;5102135;27;45350;-45
2021/06/05 08:30:25;;;;;;;;;5.25;5.25;;;;;18.95;56.65;101969.63;5102492;27;45185;-50
2021/06/05 08:32:51;;;;;;;;;6.75;6.75;;;;;18.99;56.40;101974.81;5116589;27;45266;-51
2021/06/05 08:35:16;;;;;;;;;6.75;6.75;;;;;19.03;56.57;101972.03;5129589;27;45176;-50
2021/06/05 08:37:42;;;;;;;;;10.75;7.50;;;;;19.11;56.59;101975.34;5097332;27;47489;-50
2021/06/05 08:40:10;;;;;;;;;8.75;7.25;;;;;19.14;56.68;101968.16;5083558;27;45244;-49
2021/06/05 08:42:46;;;;;;;;;10.75;8.25;;;;;19.19;56.46;101967.13;5102375;27;45403;-51
2021/06/05 08:45:12;;;;;;;;;9.00;9.00;;;;;19.22;56.39;101970.56;5102042;27;45327;-51
2021/06/05 08:47:38;;;;;;;;;9.25;8.75;;;;;19.27;56.14;101970.41;5102193;27;45379;-47
2021/06/05 08:50:10;;;;;;;;;13.50;8.00;;;;;19.32;56.14;101973.81;5101947;27;45231;-51
2021/06/05 08:52:53;;;;;;;;;8.50;8.50;;;;;19.34;55.93;101971.97;5102143;27;45310;-51
2021/06/05 08:55:29;;;;;;;;;9.75;9.00;;;;;19.38;56.36;101970.94;5101893;27;45405;-50
2021/06/05 08:57:56;;;;;;;;;12.00;11.75;;;;;19.46;56.14;101960.91;5101688;27;46049;-52
2021/06/05 09:00:38;;;;;;;;;11.50;11.50;;;;;19.54;56.14;101973.13;5101863;27;45323;-54
2021/06/05 09:03:08;;;;;;;;;9.50;8.00;;;;;19.60;55.92;101967.59;5115571;27;45418;-49
2021/06/05 09:05:38;;;;;;;;;9.50;8.75;;;;;19.66;56.29;101962.06;5114396;27;45369;-52
2021/06/05 09:08:04;;;;;;;;;12.25;9.50;;;;;19.73;56.22;101962.72;5118942;27;46274;-51
2021/06/05 09:10:32;;;;;;;;;9.00;9.00;;;;;19.81;56.37;101964.22;5085391;27;45394;-53
2021/06/05 09:12:57;;;;;;;;;12.25;10.50;;;;;19.89;56.03;101977.31;5101562;27;45263;-51
2021/06/05 09:15:30;;;;;;;;;8.75;8.75;;;;;19.98;56.31;101978.81;5101699;27;45250;-48
2021/06/05 09:17:59;;;;;;;;;9.00;8.00;;;;;20.04;56.09;101973.25;5101356;27;45378;-51
2021/06/05 09:20:44;;;;;;;;;11.00;8.00;;;;;20.12;56.18;101971.22;5089312;27;45405;-51
2021/06/05 09:23:28;;;;;;;;;7.50;6.00;;;;;20.22;56.20;101965.53;5109119;27;45414;-52
2021/06/05 09:25:55;;;;;;;;;9.25;8.00;;;;;20.29;55.67;101967.94;5104555;27;45198;-49
2021/06/05 09:28:23;;;;;;;;;6.25;5.75;;;;;20.37;56.04;101972.13;5101021;27;46303;-51
2021/06/05 09:30:53;;;;;;;;;6.00;6.00;;;;;20.46;56.08;101970.00;5101020;27;45325;-48
2021/06/05 09:33:31;;;;;;;;;8.50;5.75;;;;;20.56;55.89;101969.66;5101545;27;45251;-47
2021/06/05 09:36:21;;;;;;;;;6.00;5.00;;;;;20.66;55.39;101976.41;5107412;27;45345;-48
2021/06/05 09:38:59;;;;;;;;;7.50;5.50;;;;;20.77;55.36;101970.69;5118405;27;46192;-49
2021/06/05 09:41:44;;;;;;;;;7.25;4.75;;;;;20.87;55.62;101963.22;5101289;27;45193;-52
2021/06/05 09:44:25;;;;;;;;;8.25;6.75;;;;;20.99;55.98;101961.84;5108540;27;45285;-51
2021/06/05 09:46:56;;;;;;;;;7.00;5.00;;;;;21.07;55.56;101963.31;5086579;27;45418;-49
2021/06/05 09:49:32;;;;;;;;;8.00;8.00;;;;;21.22;55.68;101964.50;5101190;27;45349;-49
2021/06/05 09:52:12;;;;;;;;;6.50;5.75;;;;;21.30;55.55;101966.88;5100986;27;45443;-51
2021/06/05 09:54:43;;;;;;;;;7.50;7.50;;;;;21.40;55.31;101973.56;5101056;27;45258;-50
2021/06/05 09:57:35;;;;;;;;;7.00;6.75;;;;;21.49;55.32;101971.47;5101051;27;45303;-50
2021/06/05 10:00:12;;;;;;;;;7.00;6.50;;;;;21.54;54.98;101974.81;5100751;27;45437;-47
2021/06/05 10:02:44;;;;;;;;;6.00;6.00;;;;;21.61;55.05;101971.00;5112428;27;45380;-49
2021/06/05 10:05:20;;;;;;;;;4.00;4.00;;;;;21.70;55.21;101970.63;5102309;27;45239;-51
2021/06/05 10:07:46;;;;;;;;;7.75;7.75;;;;;21.81;54.71;101974.63;5100500;27;45233;-49
2021/06/05 10:10:25;;;;;;;;;8.75;8.25;;;;;21.87;54.75;101969.91;5084340;27;45538;-48
2021/06/05 10:12:52;;;;;;;;;8.00;8.00;;;;;21.93;54.38;101968.78;5100549;27;45426;-49
2021/06/05 10:15:23;;;;;;;;;6.50;6.50;;;;;22.03;54.38;101982.63;5120462;27;45199;-49
2021/06/05 10:18:00;;;;;;;;;8.00;7.50;;;;;22.18;54.59;101978.44;5121420;27;45329;-49
2021/06/05 10:20:37;;;;;;;;;11.00;10.25;;;;;22.22;54.47;101980.88;5088587;27;46490;-47
2021/06/05 10:23:04;;;;;;;;;10.25;9.25;;;;;22.32;54.39;101976.00;5114381;27;45354;-48
2021/06/05 10:25:35;;;;;;;;;6.75;6.75;;;;;22.36;53.89;101979.41;5100913;27;45394;-48
2021/06/05 10:28:14;;;;;;;;;8.25;8.25;;;;;22.41;53.87;101974.75;5108166;27;45541;-49
2021/06/05 10:30:45;;;;;;;;;9.75;8.00;;;;;22.44;53.99;101979.97;5104535;27;45415;-52
2021/06/05 10:33:38;;;;;;;;;9.75;9.75;;;;;22.51;53.98;101976.06;5100551;27;45382;-45
2021/06/05 10:36:10;;;;;;;;;8.25;8.25;;;;;22.61;53.70;101973.00;5108142;27;45381;-47
2021/06/05 10:38:49;;;;;;;;;10.00;9.25;;;;;22.73;53.92;101983.16;5120750;27;45235;-48
2021/06/05 10:41:19;;;;;;;;;8.75;8.75;;;;;22.80;53.74;101981.91;5120817;27;46123;-48
2021/06/05 10:43:45;;;;;;;;;8.50;8.50;;;;;22.87;53.41;101974.47;5101941;27;45326;-46
2021/06/05 10:46:19;;;;;;;;;8.25;8.25;;;;;22.93;53.22;101978.66;5120957;27;45206;-49
2021/06/05 10:48:46;;;;;;;;;9.00;8.50;;;;;22.94;53.42;101981.25;5120914;27;45255;-48
2021/06/05 10:51:23;;;;;;;;;7.50;7.50;;;;;22.98;52.70;101976.63;5120988;27;45362;-49
2021/06/05 10:54:15;;;;;;;;;8.25;8.25;;;;;22.95;52.67;101977.63;5102085;27;45894;-49
2021/06/05 10:56:50;;;;;;;;;8.75;8.75;;;;;22.94;52.87;101975.91;5120651;27;45297;-50
2021/06/05 10:59:51;;;;;;;;;8.25;7.50;;;;;23.00;52.82;101980.97;5120848;27;45235;-47
2021/06/05 11:02:47;;;;;;;;;8.50;8.50;;;;;23.08;52.63;101977.06;5120563;27;45491;-53
2021/06/05 11:05:19;;;;;;;;;11.75;10.50;;;;;23.17;53.31;101980.22;5097389;27;45303;-51
2021/06/05 11:08:13;;;;;;;;;9.00;9.00;;;;;23.27;52.71;101983.34;5106796;27;45240;-52
2021/06/05 11:10:50;;;;;;;;;8.50;6.00;;;;;23.37;53.54;101975.72;5102314;27;45268;-53
2021/06/05 11:13:37;;;;;;;;;6.25;6.25;;;;;23.45;52.97;101978.00;5099757;27;45425;-54
2021/06/05 11:16:13;;;;;;;;;5.75;5.25;;;;;23.49;53.15;101976.91;5099864;27;45446;-48
2021/06/05 11:18:48;;;;;;;;;7.50;7.50;;;;;23.63;52.87;101969.03;5100292;27;45342;-51
2021/06/05 11:21:22;;;;;;;;;5.75;5.75;;;;;23.74;52.80;101964.97;5112974;27;45297;-52
2021/06/05 11:23:56;;;;;;;;;9.00;8.00;;;;;23.85;52.78;101970.66;5088788;27;48151;-47
2021/06/05 11:26:34;;;;;;;;;6.00;6.00;;;;;23.95;52.79;101969.25;5107284;27;45513;-50
2021/06/05 11:29:02;;;;;;;;;8.00;7.00;;;;;24.02;52.60;101973.38;5104533;27;45298;-51